Wielsbeke, Belgium
Current Conditions -  °F | °C
As of 10:30 PM on Monday 24 Nov 2014 (Local Time) from LFQQ Reporting Station
Clear Clear  
Wind Chill: 38°   Ceiling: Unl
Heat Index: 41°   Visibility: 6mi
Dew Point: 39°   Wind: 5mph
Humidity: 93%   Direction: 40°NE
Pressure: 30.3"   Gusts: NA
Location:  50.9°N, 3.37°E
Report Text: LFQQ 242130Z 04004KT CAVOK 05/04 Q1026 NOSIG
Loading
Personal Weather Stations






























Interactive Weather Map New forecast layout! Learn more

10-Day Weather Forecast

Advertisements
Track Severe Weather on mobile